Time;durP1;ratioP1;P1;durP2;ratioP2;P2;SDS_P1;SDS_P2;PMS_P1;PMS_P2;Temp;Humidity;BMP_temperature;BMP_pressure;BME280_temperature;BME280_humidity;BME280_pressure;Samples;Min_cycle;Max_cycle;Signal;HPM_P1;HPM_P2
2022/10/30 00:00:58;;;;;;;0.40;0.40;;;14.10;99.90;;;;;;4827450;29;20049;-82
2022/10/30 00:03:23;;;;;;;1.30;1.17;;;14.10;99.90;;;;;;4844323;29;20052;-82
2022/10/30 00:05:50;;;;;;;0.87;0.60;;;14.20;99.90;;;;;;4828633;29;20057;-83
2022/10/30 00:08:19;;;;;;;0.57;0.50;;;14.10;99.90;;;;;;4826214;29;20052;-83
2022/10/30 00:10:45;;;;;;;1.27;0.80;;;14.10;99.90;;;;;;4841995;29;20057;-84
2022/10/30 00:13:12;;;;;;;1.10;0.73;;;14.20;99.90;;;;;;4814403;29;20130;-88
2022/10/30 00:15:37;;;;;;;0.93;0.73;;;14.20;99.90;;;;;;4842402;29;20037;-82
2022/10/30 00:18:04;;;;;;;1.37;0.80;;;14.20;99.90;;;;;;4828127;29;20041;-83
2022/10/30 00:20:29;;;;;;;1.02;0.90;;;14.10;99.90;;;;;;4845347;29;20054;-82
2022/10/30 00:22:55;;;;;;;0.60;0.60;;;14.10;99.90;;;;;;4826951;29;20140;-82
2022/10/30 00:25:21;;;;;;;0.80;0.80;;;14.10;99.90;;;;;;4826357;29;20053;-82
2022/10/30 00:27:47;;;;;;;1.03;0.60;;;14.10;99.90;;;;;;4827913;29;20041;-83
2022/10/30 00:30:14;;;;;;;1.70;0.73;;;14.10;99.90;;;;;;4827735;29;20828;-83
2022/10/30 00:32:41;;;;;;;1.35;0.82;;;14.00;99.90;;;;;;4842806;29;20465;-83
2022/10/30 00:35:08;;;;;;;0.65;0.65;;;14.00;99.90;;;;;;4820609;29;20104;-82
2022/10/30 00:37:34;;;;;;;0.32;0.32;;;14.00;99.90;;;;;;4827235;29;20298;-82
2022/10/30 00:40:00;;;;;;;1.23;0.93;;;14.00;99.90;;;;;;4809111;29;20565;-84
2022/10/30 00:42:29;;;;;;;1.30;0.67;;;14.00;99.90;;;;;;4827003;29;20077;-83
2022/10/30 00:44:56;;;;;;;2.55;0.60;;;14.00;99.90;;;;;;4841524;29;20072;-82
2022/10/30 00:47:27;;;;;;;1.30;1.20;;;13.90;99.90;;;;;;4826603;29;20054;-82
2022/10/30 00:49:56;;;;;;;0.80;0.80;;;14.00;99.90;;;;;;4826668;29;20573;-83
2022/10/30 00:52:27;;;;;;;0.82;0.60;;;13.90;99.90;;;;;;4825698;29;20458;-83
2022/10/30 00:54:56;;;;;;;0.75;0.60;;;13.90;99.90;;;;;;4827178;29;20068;-83
2022/10/30 00:57:22;;;;;;;3.55;0.68;;;13.90;99.90;;;;;;4841911;29;20037;-83
2022/10/30 00:59:48;;;;;;;0.38;0.38;;;13.90;99.90;;;;;;4842405;29;20382;-87
2022/10/30 01:02:14;;;;;;;;;;;13.90;99.90;;;;;;4822025;29;20081;-82
2022/10/30 01:04:41;;;;;;;0.90;0.80;;;13.90;99.90;;;;;;4858272;29;20778;-85
2022/10/30 01:07:14;;;;;;;0.98;0.80;;;13.90;99.90;;;;;;4807984;29;20700;-82
2022/10/30 01:09:40;;;;;;;2.05;1.20;;;13.90;99.90;;;;;;4826753;29;20049;-82
2022/10/30 01:12:06;;;;;;;0.73;0.60;;;13.90;99.90;;;;;;4811668;29;20049;-82
2022/10/30 01:14:36;;;;;;;1.23;1.13;;;13.90;99.90;;;;;;4840811;29;20124;-83
2022/10/30 01:17:14;;;;;;;0.65;0.60;;;13.90;99.90;;;;;;4828070;29;20131;-83
2022/10/30 01:19:58;;;;;;;1.20;0.80;;;13.90;99.90;;;;;;4835322;29;20109;-83
2022/10/30 01:22:23;;;;;;;0.45;0.45;;;13.90;99.90;;;;;;4825742;29;20052;-88
2022/10/30 01:24:52;;;;;;;0.37;0.37;;;14.00;99.90;;;;;;4827049;29;20045;-82
2022/10/30 01:27:21;;;;;;;0.55;0.55;;;13.90;99.90;;;;;;4831882;29;20050;-82
2022/10/30 01:30:14;;;;;;;3.15;0.68;;;13.90;99.90;;;;;;4824952;29;20053;-83
2022/10/30 01:33:01;;;;;;;0.45;0.32;;;13.90;99.90;;;;;;4827844;29;20041;-82
2022/10/30 01:35:39;;;;;;;0.70;0.60;;;13.90;99.90;;;;;;4833000;29;20057;-88
2022/10/30 01:38:14;;;;;;;0.50;0.50;;;13.90;99.90;;;;;;4840530;29;20053;-82
2022/10/30 01:40:45;;;;;;;2.15;0.73;;;13.80;99.90;;;;;;4840365;29;20124;-82
2022/10/30 01:43:10;;;;;;;0.55;0.40;;;13.80;99.90;;;;;;4827046;29;20045;-82
2022/10/30 01:45:54;;;;;;;0.87;0.50;;;13.80;99.90;;;;;;4838689;29;20049;-83
2022/10/30 01:48:45;;;;;;;0.50;0.50;;;13.80;99.90;;;;;;4841045;29;20420;-83
2022/10/30 01:51:37;;;;;;;0.70;0.55;;;13.80;99.90;;;;;;4839681;29;20136;-82
2022/10/30 01:54:11;;;;;;;0.77;0.65;;;13.80;99.90;;;;;;4837579;29;20125;-87
2022/10/30 01:56:54;;;;;;;0.45;0.45;;;13.70;99.90;;;;;;4823754;29;20677;-83
2022/10/30 01:59:36;;;;;;;0.63;0.55;;;13.70;99.90;;;;;;4840111;29;20484;-82
2022/10/30 02:02:02;;;;;;;0.60;0.60;;;13.70;99.90;;;;;;4826676;29;20041;-83
2022/10/30 02:04:28;;;;;;;0.85;0.43;;;13.60;99.90;;;;;;4826043;29;20053;-82
2022/10/30 02:06:54;;;;;;;0.85;0.77;;;13.60;99.90;;;;;;4826251;29;20137;-83
2022/10/30 02:09:20;;;;;;;1.03;0.40;;;13.50;99.90;;;;;;4807604;29;20124;-83
2022/10/30 02:11:47;;;;;;;0.75;0.57;;;13.50;99.90;;;;;;4841968;29;20408;-82
2022/10/30 02:14:17;;;;;;;2.03;0.47;;;13.40;99.90;;;;;;4811135;29;20453;-82
2022/10/30 02:16:49;;;;;;;0.68;0.65;;;13.40;99.90;;;;;;4840917;29;20045;-83
2022/10/30 02:19:15;;;;;;;0.88;0.60;;;13.40;99.90;;;;;;4840571;29;20060;-83
2022/10/30 02:21:41;;;;;;;1.60;0.68;;;13.30;99.90;;;;;;4825173;29;20081;-85
2022/10/30 02:24:07;;;;;;;3.83;0.80;;;13.30;99.90;;;;;;4802742;29;20054;-82
2022/10/30 02:26:32;;;;;;;0.77;0.50;;;13.30;99.90;;;;;;4811723;29;20057;-86
2022/10/30 02:28:58;;;;;;;0.60;0.60;;;13.30;99.90;;;;;;4836882;29;20627;-83
2022/10/30 02:31:24;;;;;;;1.23;0.90;;;13.30;99.90;;;;;;4841336;29;20635;-82
2022/10/30 02:33:50;;;;;;;1.30;0.70;;;13.30;99.90;;;;;;4826070;29;20046;-82
2022/10/30 02:36:15;;;;;;;0.53;0.53;;;13.30;99.90;;;;;;4824738;29;20073;-82
2022/10/30 02:38:43;;;;;;;0.32;0.32;;;13.30;99.90;;;;;;4810608;29;20102;-83
2022/10/30 02:41:09;;;;;;;1.15;0.65;;;13.30;99.90;;;;;;4827693;29;20041;-82
2022/10/30 02:43:35;;;;;;;1.65;0.88;;;13.30;99.90;;;;;;4827049;29;20057;-82
2022/10/30 02:46:01;;;;;;;0.45;0.45;;;13.30;99.90;;;;;;4810050;29;20101;-87
2022/10/30 02:48:26;;;;;;;1.00;0.70;;;13.30;99.90;;;;;;4840219;29;20622;-83
2022/10/30 02:50:52;;;;;;;0.90;0.70;;;13.20;99.90;;;;;;4825651;29;20053;-83
2022/10/30 02:53:18;;;;;;;0.63;0.63;;;13.20;99.90;;;;;;4827236;29;20124;-82
2022/10/30 02:55:43;;;;;;;2.03;0.77;;;13.20;99.90;;;;;;4824950;29;20042;-82
2022/10/30 02:58:09;;;;;;;1.10;0.70;;;13.20;99.90;;;;;;4823050;29;20045;-83
2022/10/30 03:00:35;;;;;;;0.43;0.43;;;13.20;99.90;;;;;;4800622;29;20049;-82
2022/10/30 03:03:00;;;;;;;1.23;0.80;;;13.20;99.90;;;;;;4809253;29;20049;-83
2022/10/30 03:05:26;;;;;;;0.50;0.50;;;13.10;99.90;;;;;;4826286;29;20084;-82
2022/10/30 03:07:53;;;;;;;0.50;0.37;;;13.10;99.90;;;;;;4809149;29;20485;-82
2022/10/30 03:10:19;;;;;;;1.40;0.65;;;13.10;99.90;;;;;;4827255;29;20068;-82
2022/10/30 03:12:44;;;;;;;0.67;0.67;;;13.00;99.90;;;;;;4814317;29;20080;-83
2022/10/30 03:15:10;;;;;;;1.17;0.60;;;13.00;99.90;;;;;;4828909;29;20072;-82
2022/10/30 03:17:36;;;;;;;0.67;0.67;;;12.90;99.90;;;;;;4815562;29;20061;-82
2022/10/30 03:20:01;;;;;;;0.93;0.50;;;12.90;99.90;;;;;;4827442;29;20663;-82
2022/10/30 03:22:28;;;;;;;0.83;0.57;;;12.90;99.90;;;;;;4844684;29;20056;-82
2022/10/30 03:24:54;;;;;;;0.68;0.50;;;12.80;99.90;;;;;;4812598;29;20054;-87
2022/10/30 03:27:20;;;;;;;1.10;0.67;;;12.80;99.90;;;;;;4826840;29;20048;-83
2022/10/30 03:29:45;;;;;;;0.80;0.70;;;12.80;99.90;;;;;;4826216;29;20600;-88
2022/10/30 03:32:11;;;;;;;2.37;1.07;;;12.80;99.90;;;;;;4828550;29;20050;-82
2022/10/30 03:34:37;;;;;;;0.60;0.60;;;12.80;99.90;;;;;;4813806;29;20501;-82
2022/10/30 03:37:03;;;;;;;1.87;0.50;;;12.80;99.90;;;;;;4814381;29;20046;-82
2022/10/30 03:39:29;;;;;;;1.05;0.60;;;12.80;99.90;;;;;;4843055;29;20042;-82
2022/10/30 03:41:55;;;;;;;1.17;0.57;;;12.80;99.90;;;;;;4828873;29;20513;-82
2022/10/30 03:44:21;;;;;;;0.93;0.83;;;12.80;99.90;;;;;;4827252;29;20060;-82
2022/10/30 03:46:46;;;;;;;2.37;0.83;;;12.80;99.90;;;;;;4829586;29;20049;-88
2022/10/30 03:49:12;;;;;;;0.50;0.50;;;12.70;99.90;;;;;;4812228;29;20057;-82
2022/10/30 03:51:38;;;;;;;1.10;0.70;;;12.80;99.90;;;;;;4827701;29;20062;-84
2022/10/30 03:54:03;;;;;;;1.07;0.80;;;12.80;99.90;;;;;;4824418;29;20516;-85
2022/10/30 03:56:29;;;;;;;4.83;0.80;;;12.80;99.90;;;;;;4813396;29;20045;-82
2022/10/30 03:58:55;;;;;;;1.13;0.63;;;12.70;99.90;;;;;;4826216;29;20061;-82
2022/10/30 04:01:20;;;;;;;0.80;0.80;;;12.80;99.90;;;;;;4843051;29;20053;-82
2022/10/30 04:03:46;;;;;;;0.30;0.30;;;12.80;99.90;;;;;;4815799;29;20092;-83
2022/10/30 04:06:12;;;;;;;0.93;0.50;;;12.70;99.90;;;;;;4811336;29;20049;-83
2022/10/30 04:08:38;;;;;;;0.67;0.50;;;12.70;99.90;;;;;;4843445;29;20063;-82
2022/10/30 04:11:03;;;;;;;0.60;0.60;;;12.70;99.90;;;;;;4824876;29;20314;-83
2022/10/30 04:13:29;;;;;;;0.50;0.50;;;12.70;99.90;;;;;;4829409;29;20044;-82
2022/10/30 04:15:55;;;;;;;1.20;1.00;;;12.70;99.90;;;;;;4828069;29;20049;-83
2022/10/30 04:18:21;;;;;;;0.40;0.40;;;12.70;99.90;;;;;;4829085;29;20457;-82
2022/10/30 04:20:47;;;;;;;1.60;0.88;;;12.10;99.90;;;;;;4826185;29;20420;-82
2022/10/30 04:23:15;;;;;;;1.40;0.63;;;12.70;99.90;;;;;;4811113;29;20049;-83
2022/10/30 04:25:41;;;;;;;0.80;0.65;;;12.70;99.90;;;;;;4826435;29;20057;-82
2022/10/30 04:28:07;;;;;;;0.87;0.87;;;12.70;99.90;;;;;;4841852;29;20049;-83
2022/10/30 04:30:34;;;;;;;1.97;0.60;;;12.60;99.90;;;;;;4809776;29;20078;-82
2022/10/30 04:33:01;;;;;;;0.45;0.43;;;12.60;99.90;;;;;;4825712;29;20038;-82
2022/10/30 04:35:30;;;;;;;1.95;0.82;;;12.60;99.90;;;;;;4827260;29;20053;-82
2022/10/30 04:38:04;;;;;;;0.82;0.70;;;12.50;99.90;;;;;;4842390;29;20400;-85
2022/10/30 04:40:33;;;;;;;2.83;0.80;;;12.50;99.90;;;;;;4828000;29;20057;-82
2022/10/30 04:42:59;;;;;;;0.90;0.75;;;12.40;99.90;;;;;;4841079;29;20405;-88
2022/10/30 04:45:25;;;;;;;0.85;0.77;;;12.60;99.90;;;;;;4839820;29;20132;-82
2022/10/30 04:47:51;;;;;;;0.68;0.55;;;12.40;99.90;;;;;;4828599;29;20136;-83
2022/10/30 04:50:18;;;;;;;1.52;1.15;;;12.40;99.90;;;;;;4842318;29;20537;-83
2022/10/30 04:52:43;;;;;;;1.42;0.68;;;12.40;99.90;;;;;;4837410;29;20076;-83
2022/10/30 04:55:10;;;;;;;0.83;0.70;;;12.30;99.90;;;;;;4827923;29;20073;-83
2022/10/30 04:57:36;;;;;;;;;;;12.30;99.90;;;;;;4811725;29;20580;-83
2022/10/30 05:00:07;;;;;;;1.48;0.50;;;12.30;99.90;;;;;;4826933;29;20011;-82
2022/10/30 05:02:36;;;;;;;1.38;0.65;;;12.30;99.90;;;;;;4825136;29;20475;-84
2022/10/30 05:05:02;;;;;;;1.02;1.00;;;12.30;99.90;;;;;;4797531;29;20067;-86
2022/10/30 05:07:28;;;;;;;1.00;0.88;;;12.30;99.90;;;;;;4828456;29;20101;-82
2022/10/30 05:09:54;;;;;;;0.60;0.60;;;12.20;99.90;;;;;;4812813;29;20034;-82
2022/10/30 05:12:19;;;;;;;0.60;0.53;;;12.30;99.90;;;;;;4827734;29;20160;-82
2022/10/30 05:14:45;;;;;;;1.53;1.20;;;12.20;99.90;;;;;;4828099;29;20080;-82
2022/10/30 05:17:11;;;;;;;1.57;0.70;;;12.20;99.90;;;;;;4842825;29;20298;-82
2022/10/30 05:19:36;;;;;;;1.90;0.63;;;12.20;99.90;;;;;;4827848;29;20518;-83
2022/10/30 05:22:02;;;;;;;1.50;0.73;;;12.20;99.90;;;;;;4841701;29;20109;-88
2022/10/30 05:24:28;;;;;;;0.40;0.40;;;12.20;99.90;;;;;;4809724;29;20050;-82
2022/10/30 05:26:53;;;;;;;0.73;0.73;;;12.20;99.90;;;;;;4826554;29;20056;-83
2022/10/30 05:29:19;;;;;;;0.60;0.60;;;12.10;99.90;;;;;;4825512;29;20489;-82
2022/10/30 05:31:45;;;;;;;0.50;0.50;;;12.10;99.90;;;;;;4826198;29;20514;-82
2022/10/30 05:34:10;;;;;;;0.70;0.70;;;12.20;99.90;;;;;;4841718;29;20045;-83
2022/10/30 05:36:36;;;;;;;0.70;0.47;;;12.10;99.90;;;;;;4812616;29;20092;-82
2022/10/30 05:39:02;;;;;;;0.70;0.60;;;12.10;99.90;;;;;;4811693;29;20413;-86
2022/10/30 05:41:28;;;;;;;1.50;1.27;;;12.10;99.90;;;;;;4825581;29;20392;-83
2022/10/30 05:43:54;;;;;;;0.88;0.80;;;12.10;99.90;;;;;;4840522;29;20050;-83
2022/10/30 05:46:19;;;;;;;0.87;0.77;;;12.00;99.90;;;;;;4832376;29;20052;-85
2022/10/30 05:48:45;;;;;;;2.33;0.93;;;12.00;99.90;;;;;;4810851;29;20122;-82
2022/10/30 05:51:11;;;;;;;0.97;0.70;;;12.00;99.90;;;;;;4824826;29;20099;-84
2022/10/30 05:53:39;;;;;;;1.13;0.70;;;11.90;99.90;;;;;;4829456;29;20049;-88
2022/10/30 05:56:05;;;;;;;1.48;0.47;;;11.90;99.90;;;;;;4826425;29;20432;-82
2022/10/30 05:58:31;;;;;;;0.50;0.50;;;11.90;99.90;;;;;;4825570;29;20056;-83
2022/10/30 06:00:56;;;;;;;1.30;0.77;;;11.90;99.90;;;;;;4810125;29;20409;-83
2022/10/30 06:03:22;;;;;;;1.63;1.10;;;11.90;99.90;;;;;;4795534;29;20049;-83
2022/10/30 06:05:47;;;;;;;1.50;0.60;;;11.90;99.90;;;;;;4827110;29;20136;-83
2022/10/30 06:08:15;;;;;;;2.00;0.83;;;11.90;99.90;;;;;;4813053;29;20049;-83
2022/10/30 06:10:41;;;;;;;0.70;0.57;;;11.90;99.90;;;;;;4841495;29;20048;-82
2022/10/30 06:13:08;;;;;;;0.85;0.82;;;12.00;99.90;;;;;;4825233;29;20045;-82
2022/10/30 06:15:34;;;;;;;0.82;0.73;;;11.90;99.90;;;;;;4835200;29;20473;-83
2022/10/30 06:18:00;;;;;;;0.83;0.57;;;11.90;99.90;;;;;;4825508;29;20053;-82
2022/10/30 06:20:27;;;;;;;0.57;0.57;;;11.90;99.90;;;;;;4826221;29;20080;-82
2022/10/30 06:23:00;;;;;;;1.63;0.63;;;12.00;99.90;;;;;;4825026;29;20385;-83
2022/10/30 06:25:28;;;;;;;1.80;0.75;;;12.00;99.90;;;;;;4824202;29;20045;-83
2022/10/30 06:27:53;;;;;;;0.82;0.60;;;12.00;99.90;;;;;;4826649;29;20053;-82
2022/10/30 06:30:20;;;;;;;0.93;0.93;;;11.90;99.90;;;;;;4838992;29;20048;-83
2022/10/30 06:32:46;;;;;;;1.13;0.80;;;11.90;99.90;;;;;;4839780;29;20108;-82
2022/10/30 06:35:12;;;;;;;0.63;0.60;;;11.90;99.90;;;;;;4810990;29;20044;-83
2022/10/30 06:37:40;;;;;;;0.40;0.40;;;11.90;99.90;;;;;;4824342;29;20049;-83
2022/10/30 06:40:08;;;;;;;1.55;0.90;;;11.80;99.90;;;;;;4824898;29;20577;-86
2022/10/30 06:42:50;;;;;;;0.65;0.60;;;11.80;99.90;;;;;;4826549;29;20042;-83
2022/10/30 06:45:17;;;;;;;2.80;0.82;;;11.80;99.90;;;;;;4841836;29;20049;-89
2022/10/30 06:47:43;;;;;;;0.63;0.60;;;12.00;99.90;;;;;;4829453;29;20045;-82
2022/10/30 06:50:15;;;;;;;0.57;0.57;;;11.80;99.90;;;;;;4829585;29;20110;-82
2022/10/30 06:52:40;;;;;;;1.15;0.90;;;11.80;99.90;;;;;;4844543;29;20504;-83
2022/10/30 06:55:07;;;;;;;1.27;0.75;;;11.80;99.90;;;;;;4828363;29;20057;-82
2022/10/30 06:57:33;;;;;;;1.40;0.47;;;11.90;99.90;;;;;;4828608;29;20053;-83
2022/10/30 06:59:59;;;;;;;0.87;0.80;;;11.90;99.90;;;;;;4842773;29;20080;-82
2022/10/30 07:02:24;;;;;;;1.20;0.67;;;11.90;99.90;;;;;;4843650;29;20056;-82
2022/10/30 07:04:50;;;;;;;1.40;0.50;;;11.90;99.90;;;;;;4811092;29;20050;-82
2022/10/30 07:07:16;;;;;;;1.90;0.93;;;11.90;99.90;;;;;;4828346;29;20049;-83
2022/10/30 07:09:47;;;;;;;0.50;0.50;;;11.90;99.90;;;;;;4813547;29;20122;-84
2022/10/30 07:12:12;;;;;;;0.82;0.43;;;12.00;99.90;;;;;;4813923;29;20102;-83
2022/10/30 07:14:38;;;;;;;0.83;0.60;;;12.00;99.90;;;;;;4828412;29;20045;-86
2022/10/30 07:17:04;;;;;;;0.70;0.40;;;12.10;99.90;;;;;;4797806;29;20457;-85
2022/10/30 07:19:30;;;;;;;2.17;0.80;;;12.20;99.90;;;;;;4814164;29;20064;-85
2022/10/30 07:21:55;;;;;;;0.47;0.47;;;12.20;99.90;;;;;;4814233;29;20089;-85
2022/10/30 07:24:21;;;;;;;0.80;0.73;;;12.30;99.90;;;;;;4829512;29;20052;-88
2022/10/30 07:26:47;;;;;;;0.95;0.60;;;12.40;99.90;;;;;;4815156;29;20045;-84
2022/10/30 07:29:20;;;;;;;1.13;0.70;;;12.50;99.90;;;;;;4842923;29;20072;-87
2022/10/30 07:31:49;;;;;;;1.02;0.63;;;12.50;99.90;;;;;;4813135;29;20048;-87
2022/10/30 07:34:18;;;;;;;2.08;1.00;;;12.70;99.90;;;;;;4804793;29;20060;-88
2022/10/30 07:36:43;;;;;;;0.95;0.60;;;12.60;99.90;;;;;;4817643;29;20049;-87
2022/10/30 07:39:09;;;;;;;1.80;1.07;;;12.70;99.90;;;;;;4831313;29;20052;-90
2022/10/30 07:41:35;;;;;;;1.10;0.60;;;12.80;99.90;;;;;;4815489;29;20050;-87
2022/10/30 07:44:03;;;;;;;1.17;0.77;;;12.80;99.90;;;;;;4829120;29;20068;-89
2022/10/30 07:46:29;;;;;;;2.05;0.90;;;12.90;99.90;;;;;;4833211;29;20140;-88
2022/10/30 07:49:05;;;;;;;0.83;0.50;;;13.00;99.90;;;;;;4826986;29;20148;-88
2022/10/30 07:51:31;;;;;;;1.95;0.90;;;13.00;99.90;;;;;;4829474;29;20060;-88
2022/10/30 07:53:57;;;;;;;0.70;0.70;;;13.10;99.90;;;;;;4831024;29;20045;-89
2022/10/30 07:56:25;;;;;;;1.00;0.80;;;13.00;99.90;;;;;;4826254;29;20142;-88
2022/10/30 07:58:51;;;;;;;0.85;0.70;;;13.20;99.90;;;;;;4828087;29;20809;-84
2022/10/30 08:01:16;;;;;;;1.23;0.47;;;12.80;99.90;;;;;;4842152;29;20078;-87
2022/10/30 08:03:42;;;;;;;1.13;0.70;;;13.50;99.90;;;;;;4828260;29;20053;-84
2022/10/30 08:06:08;;;;;;;1.73;0.70;;;13.50;99.90;;;;;;4810115;29;20060;-85
2022/10/30 08:08:34;;;;;;;1.63;0.70;;;13.60;99.90;;;;;;4826038;29;20653;-86
2022/10/30 08:10:59;;;;;;;0.67;0.60;;;13.70;99.90;;;;;;4825150;29;20382;-84
2022/10/30 08:13:25;;;;;;;1.20;0.60;;;13.90;99.90;;;;;;4828202;29;20393;-83
2022/10/30 08:15:51;;;;;;;1.13;0.93;;;13.90;99.90;;;;;;4842955;29;20053;-84
2022/10/30 08:18:16;;;;;;;1.67;0.80;;;13.90;99.90;;;;;;4828146;29;20045;-86
2022/10/30 08:20:47;;;;;;;1.03;0.83;;;14.00;99.90;;;;;;4828403;29;20050;-85
2022/10/30 08:23:13;;;;;;;0.98;0.52;;;14.00;99.90;;;;;;4829504;29;20466;-85
2022/10/30 08:25:39;;;;;;;1.13;0.70;;;14.10;99.90;;;;;;4827343;29;20056;-85
2022/10/30 08:28:05;;;;;;;2.40;1.00;;;14.10;99.90;;;;;;4828511;29;20294;-87
2022/10/30 08:30:34;;;;;;;1.67;1.30;;;14.10;99.90;;;;;;4828225;29;20052;-85
2022/10/30 08:33:02;;;;;;;1.45;0.88;;;14.20;99.90;;;;;;4815395;29;20049;-86
2022/10/30 08:35:27;;;;;;;1.70;0.90;;;14.20;99.90;;;;;;4828629;29;20056;-85
2022/10/30 08:37:57;;;;;;;0.70;0.65;;;14.20;99.90;;;;;;4827781;29;20057;-86
2022/10/30 08:40:23;;;;;;;0.85;0.57;;;14.20;99.90;;;;;;4843784;29;20086;-86
2022/10/30 08:42:53;;;;;;;;;;;14.30;99.90;;;;;;4841133;29;20050;-86
2022/10/30 08:45:20;;;;;;;1.38;0.90;;;14.30;99.90;;;;;;4841939;29;19924;-85
2022/10/30 08:47:46;;;;;;;1.63;0.73;;;14.40;99.90;;;;;;4829028;29;20144;-86
2022/10/30 08:50:12;;;;;;;0.73;0.73;;;14.40;99.90;;;;;;4842400;29;20057;-86
2022/10/30 08:52:37;;;;;;;1.63;1.13;;;14.50;99.90;;;;;;4844182;29;20120;-86
2022/10/30 08:55:04;;;;;;;1.33;0.93;;;14.60;99.90;;;;;;4813890;29;20045;-85
2022/10/30 08:57:35;;;;;;;1.48;0.77;;;14.70;99.90;;;;;;4841473;29;20105;-87
2022/10/30 09:00:02;;;;;;;2.33;1.00;;;14.70;99.90;;;;;;4828736;29;20062;-87
2022/10/30 09:02:28;;;;;;;1.17;0.60;;;14.80;99.90;;;;;;4827747;29;20041;-87
2022/10/30 09:04:53;;;;;;;0.93;0.80;;;14.90;99.90;;;;;;4843747;29;20058;-88
2022/10/30 09:07:19;;;;;;;1.20;0.70;;;15.00;99.90;;;;;;4827810;29;20136;-83
2022/10/30 09:09:45;;;;;;;1.43;0.80;;;15.00;99.90;;;;;;4841892;29;20068;-86
2022/10/30 09:12:10;;;;;;;1.80;0.57;;;15.20;99.90;;;;;;4811868;29;20574;-92
2022/10/30 09:14:36;;;;;;;1.10;0.73;;;15.30;99.90;;;;;;4843358;29;20073;-89
2022/10/30 09:17:02;;;;;;;0.50;0.50;;;15.40;99.90;;;;;;4828135;29;20406;-87
2022/10/30 09:19:31;;;;;;;1.33;0.85;;;15.60;99.90;;;;;;4843683;29;20369;-85
2022/10/30 09:21:56;;;;;;;0.83;0.50;;;15.60;99.90;;;;;;4827329;29;20136;-85
2022/10/30 09:24:22;;;;;;;0.60;0.50;;;15.70;99.90;;;;;;4827909;29;20037;-86
2022/10/30 09:26:48;;;;;;;1.43;0.83;;;15.80;99.90;;;;;;4841835;29;20048;-87
2022/10/30 09:29:13;;;;;;;0.98;0.50;;;16.00;99.90;;;;;;4811236;29;20058;-87
2022/10/30 09:31:39;;;;;;;0.90;0.70;;;16.00;99.90;;;;;;4812205;29;20077;-87
2022/10/30 09:34:05;;;;;;;1.10;0.90;;;16.10;99.90;;;;;;4842647;29;20504;-87
2022/10/30 09:36:46;;;;;;;;;;;;;;;;;;;;;
2022/10/30 09:39:19;;;;;;;0.82;0.82;;;16.20;99.90;;;;;;4831345;29;20049;-89
2022/10/30 09:42:02;;;;;;;0.60;0.55;;;16.30;99.90;;;;;;4827341;29;20061;-92
2022/10/30 09:45:00;;;;;;;2.92;0.80;;;16.40;99.90;;;;;;4824224;29;20528;-91
2022/10/30 09:47:54;;;;;;;;;;;;;;;;;;;;;
2022/10/30 09:51:11;;;;;;;1.52;0.50;;;16.30;99.90;;;;;;4841103;29;20052;-89
2022/10/30 09:54:05;;;;;;;;;;;;;;;;;;;;;
2022/10/30 09:56:53;;;;;;;0.65;0.52;;;17.50;99.90;;;;;;4849763;29;20045;-89
2022/10/30 09:59:35;;;;;;;;;;;18.00;99.90;;;;;;4831839;29;20493;-90
2022/10/30 10:02:47;;;;;;;1.00;0.82;;;18.30;99.90;;;;;;4842214;29;19928;-87
2022/10/30 10:06:08;;;;;;;0.70;0.50;;;18.40;99.90;;;;;;4826398;29;20041;-91
2022/10/30 10:09:13;;;;;;;0.60;0.60;;;18.70;99.90;;;;;;4836943;29;20080;-91
2022/10/30 10:12:07;;;;;;;0.90;0.73;;;19.00;99.90;;;;;;4827207;29;20093;-91
2022/10/30 10:14:44;;;;;;;1.45;0.63;;;18.90;99.90;;;;;;4825282;29;20140;-91
2022/10/30 10:17:14;;;;;;;0.77;0.60;;;20.10;99.90;;;;;;4827664;29;20117;-90
2022/10/30 10:19:54;;;;;;;1.27;1.02;;;19.90;99.90;;;;;;4826543;29;20057;-86
2022/10/30 10:22:23;;;;;;;4.25;0.93;;;20.10;99.90;;;;;;4825293;29;20077;-86
2022/10/30 10:24:52;;;;;;;1.17;0.60;;;20.30;99.90;;;;;;4842076;29;20047;-87
2022/10/30 10:27:45;;;;;;;0.63;0.45;;;20.70;99.90;;;;;;4827743;29;20109;-86
2022/10/30 10:30:24;;;;;;;0.70;0.70;;;21.00;99.90;;;;;;4836716;29;20102;-88
2022/10/30 10:33:27;;;;;;;1.00;0.65;;;21.30;99.90;;;;;;4841376;29;20107;-88
2022/10/30 10:35:53;;;;;;;1.20;0.52;;;21.70;99.90;;;;;;4822008;29;20045;-94
2022/10/30 10:38:42;;;;;;;0.88;0.45;;;22.30;99.90;;;;;;4825957;29;20053;-88
2022/10/30 10:41:22;;;;;;;1.83;0.70;;;21.80;99.90;;;;;;4839337;29;20058;-89
2022/10/30 10:44:11;;;;;;;1.83;0.80;;;21.80;99.90;;;;;;4826310;29;20540;-88
2022/10/30 10:46:51;;;;;;;0.73;0.73;;;22.10;99.90;;;;;;4826719;29;20426;-88
2022/10/30 10:49:46;;;;;;;1.42;0.82;;;22.30;99.90;;;;;;4825461;29;20057;-85
2022/10/30 10:52:48;;;;;;;1.20;0.90;;;22.40;99.90;;;;;;4848570;29;20057;-87
2022/10/30 10:55:26;;;;;;;0.65;0.50;;;22.50;99.90;;;;;;4822467;29;20426;-85
2022/10/30 10:57:52;;;;;;;0.63;0.50;;;22.70;99.90;;;;;;4824237;29;20077;-86
2022/10/30 11:00:22;;;;;;;1.55;0.77;;;22.90;99.90;;;;;;4812269;29;20051;-85
2022/10/30 11:03:09;;;;;;;0.75;0.47;;;23.00;99.90;;;;;;4824902;29;20106;-85
2022/10/30 11:05:36;;;;;;;0.68;0.68;;;23.00;99.90;;;;;;4841743;29;20045;-86
2022/10/30 11:08:26;;;;;;;0.52;0.52;;;23.00;99.90;;;;;;4825060;29;20099;-86
2022/10/30 11:11:03;;;;;;;1.08;0.80;;;23.00;99.90;;;;;;4825825;29;20054;-86
2022/10/30 11:13:36;;;;;;;0.50;0.50;;;23.00;99.90;;;;;;4825766;29;20049;-86
2022/10/30 11:16:28;;;;;;;1.48;0.88;;;23.00;99.90;;;;;;4826268;29;20053;-87
2022/10/30 11:19:00;;;;;;;0.47;0.47;;;23.00;99.90;;;;;;4842201;29;20488;-85
2022/10/30 11:21:30;;;;;;;1.73;0.80;;;22.80;99.90;;;;;;4825144;29;20528;-86
2022/10/30 11:23:56;;;;;;;0.60;0.60;;;22.80;99.90;;;;;;4825518;29;20060;-86
2022/10/30 11:26:22;;;;;;;0.77;0.57;;;22.70;99.90;;;;;;4829031;29;20049;-86
2022/10/30 11:28:49;;;;;;;;;;;22.50;99.90;;;;;;4827660;29;20045;-86
2022/10/30 11:31:39;;;;;;;0.80;0.70;;;22.70;99.90;;;;;;4844220;29;20348;-85
2022/10/30 11:34:17;;;;;;;0.73;0.73;;;22.80;99.90;;;;;;4828940;29;20057;-87
2022/10/30 11:36:50;;;;;;;1.02;0.25;;;22.80;99.90;;;;;;4831831;29;20136;-85
2022/10/30 11:39:24;;;;;;;1.25;0.80;;;22.90;99.90;;;;;;4843816;29;20054;-85
2022/10/30 11:42:13;;;;;;;0.50;0.50;;;23.00;99.90;;;;;;4843729;29;20124;-86
2022/10/30 11:44:51;;;;;;;0.60;0.60;;;23.00;99.90;;;;;;4828865;29;20430;-87
2022/10/30 11:47:35;;;;;;;1.08;0.70;;;23.00;99.90;;;;;;4844037;29;20400;-85
2022/10/30 11:50:06;;;;;;;1.10;0.55;;;22.90;99.90;;;;;;4828867;29;20077;-87
2022/10/30 11:52:39;;;;;;;0.50;0.50;;;22.70;99.90;;;;;;4844276;29;20413;-87
2022/10/30 11:55:29;;;;;;;1.23;1.13;;;22.60;99.90;;;;;;4845604;29;20462;-86
2022/10/30 11:57:56;;;;;;;0.75;0.43;;;22.60;99.90;;;;;;4829500;29;20504;-87
2022/10/30 12:00:25;;;;;;;0.93;0.80;;;22.80;99.90;;;;;;4843512;29;20064;-88
2022/10/30 12:02:54;;;;;;;1.15;0.73;;;23.00;99.90;;;;;;4829752;29;20050;-87
2022/10/30 12:05:29;;;;;;;0.47;0.47;;;23.10;99.90;;;;;;4842724;29;20087;-88
2022/10/30 12:08:09;;;;;;;0.70;0.47;;;23.10;99.90;;;;;;4829117;29;20053;-84
2022/10/30 12:10:41;;;;;;;0.32;0.32;;;23.00;99.90;;;;;;4842267;29;20098;-88
2022/10/30 12:13:20;;;;;;;0.82;0.82;;;22.90;99.90;;;;;;4839442;29;20049;-86
2022/10/30 12:15:48;;;;;;;0.73;0.50;;;22.70;99.90;;;;;;4831269;29;20093;-87
2022/10/30 12:18:25;;;;;;;0.95;0.70;;;22.50;99.90;;;;;;4828554;29;20133;-89
2022/10/30 12:20:56;;;;;;;0.45;0.40;;;21.60;99.90;;;;;;4827909;29;20049;-86
2022/10/30 12:23:25;;;;;;;1.13;0.77;;;22.30;99.90;;;;;;4825917;29;20561;-86
2022/10/30 12:25:55;;;;;;;0.50;0.32;;;22.10;99.90;;;;;;4828926;29;20151;-91
2022/10/30 12:28:26;;;;;;;1.38;0.80;;;21.90;99.90;;;;;;4826966;29;20049;-87
2022/10/30 12:31:08;;;;;;;0.63;0.60;;;21.80;99.90;;;;;;4844844;29;20051;-86
2022/10/30 12:34:04;;;;;;;0.95;0.95;;;21.70;99.90;;;;;;4829851;29;20049;-87
2022/10/30 12:36:41;;;;;;;0.32;0.32;;;21.60;99.90;;;;;;4828879;29;20121;-86
2022/10/30 12:39:30;;;;;;;0.90;0.60;;;22.30;99.90;;;;;;4829047;29;20041;-87
2022/10/30 12:42:07;;;;;;;1.88;0.65;;;21.40;99.90;;;;;;4828569;29;20062;-86
2022/10/30 12:44:41;;;;;;;0.82;0.57;;;21.30;99.90;;;;;;4842145;29;20049;-87
2022/10/30 12:47:07;;;;;;;0.40;0.40;;;21.20;99.90;;;;;;4844169;29;20110;-88
2022/10/30 12:49:47;;;;;;;0.52;0.30;;;21.20;99.90;;;;;;4828227;29;20065;-86
2022/10/30 12:52:20;;;;;;;0.57;0.55;;;21.20;99.90;;;;;;4835931;29;20124;-85
2022/10/30 12:54:58;;;;;;;0.85;0.30;;;21.00;99.90;;;;;;4828983;29;20049;-85
2022/10/30 12:57:34;;;;;;;0.50;0.50;;;20.90;99.90;;;;;;4829791;29;20049;-85
2022/10/30 13:00:05;;;;;;;5.75;1.13;;;20.90;99.90;;;;;;4828975;29;20124;-85
2022/10/30 13:02:57;;;;;;;0.65;0.40;;;21.00;99.90;;;;;;4828884;29;20465;-85
2022/10/30 13:05:50;;;;;;;0.45;0.45;;;21.00;99.90;;;;;;4843549;29;20504;-85
2022/10/30 13:08:22;;;;;;;0.40;0.40;;;21.10;99.90;;;;;;4828992;29;20426;-86